sensor_id;sensor_type;location;lat;lon;timestamp;P1;durP1;ratioP1;P2;durP2;ratioP2
73575;SDS011;61859;49.204;8.140;2022-09-28T00:01:15;0.77;;;0.57;;
73575;SDS011;61859;49.204;8.140;2022-09-28T00:03:41;1.07;;;0.80;;
73575;SDS011;61859;49.204;8.140;2022-09-28T00:06:08;0.67;;;0.67;;
73575;SDS011;61859;49.204;8.140;2022-09-28T00:08:36;0.60;;;0.60;;
73575;SDS011;61859;49.204;8.140;2022-09-28T00:11:02;1.10;;;0.70;;
73575;SDS011;61859;49.204;8.140;2022-09-28T00:13:29;1.03;;;0.67;;
73575;SDS011;61859;49.204;8.140;2022-09-28T00:16:07;0.53;;;0.53;;
73575;SDS011;61859;49.204;8.140;2022-09-28T00:18:38;0.50;;;0.50;;
73575;SDS011;61859;49.204;8.140;2022-09-28T00:23:34;1.10;;;0.77;;
73575;SDS011;61859;49.204;8.140;2022-09-28T00:26:20;0.53;;;0.53;;
73575;SDS011;61859;49.204;8.140;2022-09-28T00:28:46;0.73;;;0.70;;
73575;SDS011;61859;49.204;8.140;2022-09-28T00:31:14;1.37;;;0.73;;
73575;SDS011;61859;49.204;8.140;2022-09-28T00:33:40;0.93;;;0.90;;
73575;SDS011;61859;49.204;8.140;2022-09-28T00:36:06;0.73;;;0.73;;
73575;SDS011;61859;49.204;8.140;2022-09-28T00:38:32;0.80;;;0.63;;
73575;SDS011;61859;49.204;8.140;2022-09-28T00:40:57;1.07;;;0.63;;
73575;SDS011;61859;49.204;8.140;2022-09-28T00:43:24;2.15;;;0.75;;
73575;SDS011;61859;49.204;8.140;2022-09-28T00:46:00;0.80;;;0.80;;
73575;SDS011;61859;49.204;8.140;2022-09-28T00:48:31;0.93;;;0.93;;
73575;SDS011;61859;49.204;8.140;2022-09-28T00:51:00;0.70;;;0.40;;
73575;SDS011;61859;49.204;8.140;2022-09-28T00:53:29;0.40;;;0.40;;
73575;SDS011;61859;49.204;8.140;2022-09-28T00:56:00;1.07;;;0.57;;
73575;SDS011;61859;49.204;8.140;2022-09-28T00:58:32;1.07;;;0.60;;
73575;SDS011;61859;49.204;8.140;2022-09-28T01:01:00;0.67;;;0.50;;
73575;SDS011;61859;49.204;8.140;2022-09-28T01:03:27;0.57;;;0.57;;
73575;SDS011;61859;49.204;8.140;2022-09-28T01:05:53;0.40;;;0.40;;
73575;SDS011;61859;49.204;8.140;2022-09-28T01:08:22;0.83;;;0.40;;
73575;SDS011;61859;49.204;8.140;2022-09-28T01:10:51;0.37;;;0.37;;
73575;SDS011;61859;49.204;8.140;2022-09-28T01:13:17;0.37;;;0.37;;
73575;SDS011;61859;49.204;8.140;2022-09-28T01:18:21;0.30;;;0.30;;
73575;SDS011;61859;49.204;8.140;2022-09-28T01:20:59;1.20;;;0.43;;
73575;SDS011;61859;49.204;8.140;2022-09-28T01:26:18;0.37;;;0.20;;
73575;SDS011;61859;49.204;8.140;2022-09-28T01:28:57;0.10;;;0.10;;
73575;SDS011;61859;49.204;8.140;2022-09-28T01:31:30;0.20;;;0.20;;
73575;SDS011;61859;49.204;8.140;2022-09-28T01:34:02;0.13;;;0.13;;
73575;SDS011;61859;49.204;8.140;2022-09-28T01:36:40;0.10;;;0.10;;
73575;SDS011;61859;49.204;8.140;2022-09-28T01:39:12;0.73;;;0.40;;
73575;SDS011;61859;49.204;8.140;2022-09-28T01:41:43;0.00;;;0.00;;
73575;SDS011;61859;49.204;8.140;2022-09-28T01:44:12;1.53;;;0.73;;
73575;SDS011;61859;49.204;8.140;2022-09-28T01:46:41;0.50;;;0.40;;
73575;SDS011;61859;49.204;8.140;2022-09-28T01:49:11;0.30;;;0.30;;
73575;SDS011;61859;49.204;8.140;2022-09-28T01:54:12;1.33;;;0.10;;
73575;SDS011;61859;49.204;8.140;2022-09-28T01:56:43;0.23;;;0.20;;
73575;SDS011;61859;49.204;8.140;2022-09-28T01:59:17;0.30;;;0.30;;
73575;SDS011;61859;49.204;8.140;2022-09-28T02:01:48;0.20;;;0.20;;
73575;SDS011;61859;49.204;8.140;2022-09-28T02:07:12;0.63;;;0.10;;
73575;SDS011;61859;49.204;8.140;2022-09-28T02:09:43;0.00;;;0.00;;
73575;SDS011;61859;49.204;8.140;2022-09-28T02:12:21;0.10;;;0.10;;
73575;SDS011;61859;49.204;8.140;2022-09-28T02:14:56;0.10;;;0.10;;
73575;SDS011;61859;49.204;8.140;2022-09-28T02:17:30;0.57;;;0.20;;
73575;SDS011;61859;49.204;8.140;2022-09-28T02:19:56;0.10;;;0.10;;
73575;SDS011;61859;49.204;8.140;2022-09-28T02:22:29;0.03;;;0.03;;
73575;SDS011;61859;49.204;8.140;2022-09-28T02:25:08;0.10;;;0.10;;
73575;SDS011;61859;49.204;8.140;2022-09-28T02:27:38;0.10;;;0.03;;
73575;SDS011;61859;49.204;8.140;2022-09-28T02:30:05;1.07;;;0.10;;
73575;SDS011;61859;49.204;8.140;2022-09-28T02:32:32;0.10;;;0.10;;
73575;SDS011;61859;49.204;8.140;2022-09-28T02:35:05;0.10;;;0.10;;
73575;SDS011;61859;49.204;8.140;2022-09-28T02:37:35;0.10;;;0.10;;
73575;SDS011;61859;49.204;8.140;2022-09-28T02:40:01;0.50;;;0.10;;
73575;SDS011;61859;49.204;8.140;2022-09-28T02:42:39;1.37;;;0.10;;
73575;SDS011;61859;49.204;8.140;2022-09-28T02:45:35;0.63;;;0.20;;
73575;SDS011;61859;49.204;8.140;2022-09-28T02:48:39;0.00;;;0.00;;
73575;SDS011;61859;49.204;8.140;2022-09-28T02:51:02;0.00;;;0.00;;
73575;SDS011;61859;49.204;8.140;2022-09-28T03:02:39;0.00;;;0.00;;
73575;SDS011;61859;49.204;8.140;2022-09-28T03:05:21;0.10;;;0.00;;
73575;SDS011;61859;49.204;8.140;2022-09-28T03:10:49;0.43;;;0.37;;
73575;SDS011;61859;49.204;8.140;2022-09-28T03:13:25;0.20;;;0.20;;
73575;SDS011;61859;49.204;8.140;2022-09-28T03:16:05;0.57;;;0.30;;
73575;SDS011;61859;49.204;8.140;2022-09-28T03:18:35;0.40;;;0.40;;
73575;SDS011;61859;49.204;8.140;2022-09-28T03:21:00;0.60;;;0.33;;
73575;SDS011;61859;49.204;8.140;2022-09-28T03:23:28;0.40;;;0.40;;
73575;SDS011;61859;49.204;8.140;2022-09-28T03:25:53;0.50;;;0.40;;
73575;SDS011;61859;49.204;8.140;2022-09-28T03:28:20;0.30;;;0.17;;
73575;SDS011;61859;49.204;8.140;2022-09-28T03:30:46;1.90;;;0.40;;
73575;SDS011;61859;49.204;8.140;2022-09-28T03:33:11;1.20;;;0.50;;
73575;SDS011;61859;49.204;8.140;2022-09-28T03:35:37;0.70;;;0.50;;
73575;SDS011;61859;49.204;8.140;2022-09-28T03:38:02;0.67;;;0.57;;
73575;SDS011;61859;49.204;8.140;2022-09-28T03:40:28;0.40;;;0.40;;
73575;SDS011;61859;49.204;8.140;2022-09-28T03:42:53;0.50;;;0.40;;
73575;SDS011;61859;49.204;8.140;2022-09-28T03:45:19;2.03;;;0.70;;
73575;SDS011;61859;49.204;8.140;2022-09-28T03:47:45;0.27;;;0.27;;
73575;SDS011;61859;49.204;8.140;2022-09-28T03:50:11;0.80;;;0.60;;
73575;SDS011;61859;49.204;8.140;2022-09-28T03:52:37;0.60;;;0.50;;
73575;SDS011;61859;49.204;8.140;2022-09-28T03:55:03;0.63;;;0.53;;
73575;SDS011;61859;49.204;8.140;2022-09-28T03:57:29;0.60;;;0.50;;
73575;SDS011;61859;49.204;8.140;2022-09-28T03:59:54;0.53;;;0.53;;
73575;SDS011;61859;49.204;8.140;2022-09-28T04:02:20;0.53;;;0.50;;
73575;SDS011;61859;49.204;8.140;2022-09-28T04:04:45;0.77;;;0.63;;
73575;SDS011;61859;49.204;8.140;2022-09-28T04:07:11;1.30;;;1.20;;
73575;SDS011;61859;49.204;8.140;2022-09-28T04:09:36;1.27;;;0.80;;
73575;SDS011;61859;49.204;8.140;2022-09-28T04:12:02;1.97;;;0.93;;
73575;SDS011;61859;49.204;8.140;2022-09-28T04:14:28;1.30;;;1.20;;
73575;SDS011;61859;49.204;8.140;2022-09-28T04:16:53;2.10;;;1.30;;
73575;SDS011;61859;49.204;8.140;2022-09-28T04:19:19;2.13;;;1.10;;
73575;SDS011;61859;49.204;8.140;2022-09-28T04:21:46;1.20;;;1.10;;
73575;SDS011;61859;49.204;8.140;2022-09-28T04:24:14;1.77;;;1.10;;
73575;SDS011;61859;49.204;8.140;2022-09-28T04:26:40;1.53;;;1.13;;
73575;SDS011;61859;49.204;8.140;2022-09-28T04:29:07;2.57;;;1.10;;
73575;SDS011;61859;49.204;8.140;2022-09-28T04:31:41;3.13;;;1.40;;
73575;SDS011;61859;49.204;8.140;2022-09-28T04:34:09;1.00;;;1.00;;
73575;SDS011;61859;49.204;8.140;2022-09-28T04:36:36;1.47;;;1.17;;
73575;SDS011;61859;49.204;8.140;2022-09-28T04:39:01;1.40;;;1.30;;
73575;SDS011;61859;49.204;8.140;2022-09-28T04:41:27;1.47;;;1.00;;
73575;SDS011;61859;49.204;8.140;2022-09-28T04:43:53;1.17;;;1.07;;
73575;SDS011;61859;49.204;8.140;2022-09-28T04:46:18;3.57;;;1.30;;
73575;SDS011;61859;49.204;8.140;2022-09-28T04:48:44;2.90;;;1.17;;
73575;SDS011;61859;49.204;8.140;2022-09-28T04:51:10;1.90;;;1.13;;
73575;SDS011;61859;49.204;8.140;2022-09-28T04:53:35;0.80;;;0.80;;
73575;SDS011;61859;49.204;8.140;2022-09-28T04:56:02;1.90;;;1.10;;
73575;SDS011;61859;49.204;8.140;2022-09-28T04:58:29;1.07;;;1.00;;
73575;SDS011;61859;49.204;8.140;2022-09-28T05:00:56;1.07;;;0.70;;
73575;SDS011;61859;49.204;8.140;2022-09-28T05:03:23;1.40;;;1.10;;
73575;SDS011;61859;49.204;8.140;2022-09-28T05:05:48;1.90;;;0.80;;
73575;SDS011;61859;49.204;8.140;2022-09-28T05:08:14;3.03;;;1.07;;
73575;SDS011;61859;49.204;8.140;2022-09-28T05:10:40;0.77;;;0.77;;
73575;SDS011;61859;49.204;8.140;2022-09-28T05:13:06;1.03;;;0.97;;
73575;SDS011;61859;49.204;8.140;2022-09-28T05:15:34;1.67;;;0.93;;
73575;SDS011;61859;49.204;8.140;2022-09-28T05:18:00;2.30;;;1.20;;
73575;SDS011;61859;49.204;8.140;2022-09-28T05:20:26;1.10;;;1.00;;
73575;SDS011;61859;49.204;8.140;2022-09-28T05:22:52;1.47;;;1.03;;
73575;SDS011;61859;49.204;8.140;2022-09-28T05:25:17;1.20;;;1.10;;
73575;SDS011;61859;49.204;8.140;2022-09-28T05:27:43;1.57;;;1.23;;
73575;SDS011;61859;49.204;8.140;2022-09-28T05:30:09;1.70;;;1.30;;
73575;SDS011;61859;49.204;8.140;2022-09-28T05:32:41;2.17;;;1.47;;
73575;SDS011;61859;49.204;8.140;2022-09-28T05:35:08;2.60;;;1.20;;
73575;SDS011;61859;49.204;8.140;2022-09-28T05:37:35;0.90;;;0.90;;
73575;SDS011;61859;49.204;8.140;2022-09-28T05:40:01;1.90;;;1.10;;
73575;SDS011;61859;49.204;8.140;2022-09-28T05:42:28;1.80;;;1.20;;
73575;SDS011;61859;49.204;8.140;2022-09-28T05:44:54;2.33;;;1.30;;
73575;SDS011;61859;49.204;8.140;2022-09-28T05:47:22;1.30;;;1.20;;
73575;SDS011;61859;49.204;8.140;2022-09-28T05:49:47;2.23;;;1.20;;
73575;SDS011;61859;49.204;8.140;2022-09-28T05:52:13;1.23;;;1.13;;
73575;SDS011;61859;49.204;8.140;2022-09-28T05:54:38;1.27;;;1.07;;
73575;SDS011;61859;49.204;8.140;2022-09-28T05:57:04;1.23;;;1.10;;
73575;SDS011;61859;49.204;8.140;2022-09-28T05:59:31;1.90;;;1.47;;
73575;SDS011;61859;49.204;8.140;2022-09-28T06:01:59;1.37;;;1.27;;
73575;SDS011;61859;49.204;8.140;2022-09-28T06:04:24;1.83;;;1.73;;
73575;SDS011;61859;49.204;8.140;2022-09-28T06:06:50;1.87;;;1.70;;
73575;SDS011;61859;49.204;8.140;2022-09-28T06:09:16;3.07;;;1.60;;
73575;SDS011;61859;49.204;8.140;2022-09-28T06:11:41;4.50;;;1.50;;
73575;SDS011;61859;49.204;8.140;2022-09-28T06:14:07;2.10;;;1.60;;
73575;SDS011;61859;49.204;8.140;2022-09-28T06:16:32;3.17;;;1.40;;
73575;SDS011;61859;49.204;8.140;2022-09-28T06:18:59;1.23;;;1.13;;
73575;SDS011;61859;49.204;8.140;2022-09-28T06:21:25;1.20;;;1.20;;
73575;SDS011;61859;49.204;8.140;2022-09-28T06:23:50;1.30;;;1.20;;
73575;SDS011;61859;49.204;8.140;2022-09-28T06:26:16;1.67;;;1.20;;
73575;SDS011;61859;49.204;8.140;2022-09-28T06:28:42;2.00;;;1.33;;
73575;SDS011;61859;49.204;8.140;2022-09-28T06:31:07;2.43;;;1.00;;
73575;SDS011;61859;49.204;8.140;2022-09-28T06:33:33;1.67;;;1.27;;
73575;SDS011;61859;49.204;8.140;2022-09-28T06:35:59;2.00;;;1.30;;
73575;SDS011;61859;49.204;8.140;2022-09-28T06:38:25;4.73;;;1.30;;
73575;SDS011;61859;49.204;8.140;2022-09-28T06:40:51;3.07;;;1.70;;
73575;SDS011;61859;49.204;8.140;2022-09-28T06:43:17;1.60;;;1.40;;
73575;SDS011;61859;49.204;8.140;2022-09-28T06:45:43;1.47;;;1.10;;
73575;SDS011;61859;49.204;8.140;2022-09-28T06:48:14;3.40;;;1.50;;
73575;SDS011;61859;49.204;8.140;2022-09-28T06:50:40;1.97;;;1.80;;
73575;SDS011;61859;49.204;8.140;2022-09-28T06:53:07;2.50;;;1.80;;
73575;SDS011;61859;49.204;8.140;2022-09-28T06:55:37;1.53;;;1.33;;
73575;SDS011;61859;49.204;8.140;2022-09-28T06:58:05;3.43;;;1.70;;
73575;SDS011;61859;49.204;8.140;2022-09-28T07:00:33;1.50;;;1.40;;
73575;SDS011;61859;49.204;8.140;2022-09-28T07:03:03;1.97;;;1.40;;
73575;SDS011;61859;49.204;8.140;2022-09-28T07:05:30;2.10;;;1.37;;
73575;SDS011;61859;49.204;8.140;2022-09-28T07:07:59;3.33;;;1.40;;
73575;SDS011;61859;49.204;8.140;2022-09-28T07:10:26;1.40;;;1.20;;
73575;SDS011;61859;49.204;8.140;2022-09-28T07:12:54;1.53;;;1.20;;
73575;SDS011;61859;49.204;8.140;2022-09-28T07:15:21;1.67;;;0.93;;
73575;SDS011;61859;49.204;8.140;2022-09-28T07:17:47;2.10;;;1.00;;
73575;SDS011;61859;49.204;8.140;2022-09-28T07:20:13;1.50;;;1.27;;
73575;SDS011;61859;49.204;8.140;2022-09-28T07:22:39;0.77;;;0.77;;
73575;SDS011;61859;49.204;8.140;2022-09-28T07:25:05;3.37;;;1.00;;
73575;SDS011;61859;49.204;8.140;2022-09-28T07:27:31;1.60;;;0.93;;
73575;SDS011;61859;49.204;8.140;2022-09-28T07:29:57;0.80;;;0.60;;
73575;SDS011;61859;49.204;8.140;2022-09-28T07:32:23;1.50;;;0.80;;
73575;SDS011;61859;49.204;8.140;2022-09-28T07:34:48;5.43;;;1.00;;
73575;SDS011;61859;49.204;8.140;2022-09-28T07:37:14;1.07;;;0.93;;
73575;SDS011;61859;49.204;8.140;2022-09-28T07:39:42;1.63;;;0.87;;
73575;SDS011;61859;49.204;8.140;2022-09-28T07:42:35;1.77;;;1.10;;
73575;SDS011;61859;49.204;8.140;2022-09-28T07:45:00;1.30;;;0.93;;
73575;SDS011;61859;49.204;8.140;2022-09-28T07:47:27;1.73;;;1.10;;
73575;SDS011;61859;49.204;8.140;2022-09-28T07:49:53;1.17;;;0.90;;
73575;SDS011;61859;49.204;8.140;2022-09-28T07:52:24;1.97;;;0.90;;
73575;SDS011;61859;49.204;8.140;2022-09-28T07:54:53;0.70;;;0.70;;
73575;SDS011;61859;49.204;8.140;2022-09-28T07:57:20;0.77;;;0.73;;
73575;SDS011;61859;49.204;8.140;2022-09-28T07:59:46;1.90;;;1.03;;
73575;SDS011;61859;49.204;8.140;2022-09-28T08:02:14;4.77;;;1.07;;
73575;SDS011;61859;49.204;8.140;2022-09-28T08:04:44;0.83;;;0.70;;
73575;SDS011;61859;49.204;8.140;2022-09-28T08:07:10;1.77;;;1.00;;
73575;SDS011;61859;49.204;8.140;2022-09-28T08:09:36;0.53;;;0.53;;
73575;SDS011;61859;49.204;8.140;2022-09-28T08:12:02;1.53;;;0.90;;
73575;SDS011;61859;49.204;8.140;2022-09-28T08:14:29;1.30;;;0.80;;
73575;SDS011;61859;49.204;8.140;2022-09-28T08:16:58;2.00;;;0.70;;
73575;SDS011;61859;49.204;8.140;2022-09-28T08:19:25;1.57;;;1.20;;
73575;SDS011;61859;49.204;8.140;2022-09-28T08:22:11;0.93;;;0.90;;
73575;SDS011;61859;49.204;8.140;2022-09-28T08:24:36;2.97;;;1.03;;
73575;SDS011;61859;49.204;8.140;2022-09-28T08:27:02;1.57;;;1.00;;
73575;SDS011;61859;49.204;8.140;2022-09-28T08:29:27;0.80;;;0.80;;
73575;SDS011;61859;49.204;8.140;2022-09-28T08:31:56;1.80;;;0.70;;
73575;SDS011;61859;49.204;8.140;2022-09-28T08:34:24;2.90;;;0.80;;
73575;SDS011;61859;49.204;8.140;2022-09-28T08:36:51;1.43;;;1.00;;
73575;SDS011;61859;49.204;8.140;2022-09-28T08:39:17;1.87;;;0.60;;
73575;SDS011;61859;49.204;8.140;2022-09-28T08:41:50;2.17;;;0.57;;
73575;SDS011;61859;49.204;8.140;2022-09-28T08:44:42;1.27;;;0.80;;
73575;SDS011;61859;49.204;8.140;2022-09-28T08:47:22;1.10;;;0.90;;
73575;SDS011;61859;49.204;8.140;2022-09-28T08:50:08;1.37;;;1.17;;
73575;SDS011;61859;49.204;8.140;2022-09-28T08:52:39;1.10;;;0.80;;
73575;SDS011;61859;49.204;8.140;2022-09-28T08:57:45;0.93;;;0.73;;
73575;SDS011;61859;49.204;8.140;2022-09-28T09:00:18;0.73;;;0.63;;
73575;SDS011;61859;49.204;8.140;2022-09-28T09:02:57;1.07;;;0.83;;
73575;SDS011;61859;49.204;8.140;2022-09-28T09:05:23;0.80;;;0.60;;
73575;SDS011;61859;49.204;8.140;2022-09-28T09:10:45;1.03;;;0.87;;
73575;SDS011;61859;49.204;8.140;2022-09-28T09:13:23;2.30;;;1.03;;
73575;SDS011;61859;49.204;8.140;2022-09-28T09:18:42;1.43;;;0.67;;
73575;SDS011;61859;49.204;8.140;2022-09-28T09:21:31;0.97;;;0.80;;
73575;SDS011;61859;49.204;8.140;2022-09-28T09:24:15;2.43;;;0.80;;
73575;SDS011;61859;49.204;8.140;2022-09-28T09:26:49;0.40;;;0.40;;
73575;SDS011;61859;49.204;8.140;2022-09-28T09:47:52;0.83;;;0.63;;
73575;SDS011;61859;49.204;8.140;2022-09-28T09:50:29;1.20;;;0.80;;
73575;SDS011;61859;49.204;8.140;2022-09-28T09:53:04;0.50;;;0.50;;
73575;SDS011;61859;49.204;8.140;2022-09-28T09:55:44;0.93;;;0.70;;
73575;SDS011;61859;49.204;8.140;2022-09-28T09:58:14;1.33;;;0.60;;
73575;SDS011;61859;49.204;8.140;2022-09-28T10:00:47;3.17;;;0.97;;
73575;SDS011;61859;49.204;8.140;2022-09-28T10:03:20;0.67;;;0.57;;
73575;SDS011;61859;49.204;8.140;2022-09-28T10:05:49;2.17;;;0.60;;
73575;SDS011;61859;49.204;8.140;2022-09-28T10:08:20;2.73;;;0.80;;
73575;SDS011;61859;49.204;8.140;2022-09-28T10:10:50;0.83;;;0.60;;
73575;SDS011;61859;49.204;8.140;2022-09-28T10:13:18;2.70;;;0.90;;
73575;SDS011;61859;49.204;8.140;2022-09-28T10:15:43;2.27;;;0.83;;
73575;SDS011;61859;49.204;8.140;2022-09-28T10:18:13;0.63;;;0.60;;
73575;SDS011;61859;49.204;8.140;2022-09-28T10:20:41;1.03;;;0.60;;
73575;SDS011;61859;49.204;8.140;2022-09-28T10:23:20;0.70;;;0.60;;
73575;SDS011;61859;49.204;8.140;2022-09-28T10:29:22;1.77;;;0.80;;
73575;SDS011;61859;49.204;8.140;2022-09-28T10:31:44;0.70;;;0.40;;
73575;SDS011;61859;49.204;8.140;2022-09-28T10:34:13;2.07;;;0.70;;
73575;SDS011;61859;49.204;8.140;2022-09-28T10:36:53;1.43;;;0.60;;
73575;SDS011;61859;49.204;8.140;2022-09-28T10:39:26;0.30;;;0.30;;
73575;SDS011;61859;49.204;8.140;2022-09-28T10:41:55;0.83;;;0.67;;
73575;SDS011;61859;49.204;8.140;2022-09-28T10:44:23;1.13;;;0.50;;
73575;SDS011;61859;49.204;8.140;2022-09-28T10:47:01;0.77;;;0.60;;
73575;SDS011;61859;49.204;8.140;2022-09-28T10:49:39;1.27;;;0.70;;
73575;SDS011;61859;49.204;8.140;2022-09-28T10:54:58;1.03;;;0.70;;
73575;SDS011;61859;49.204;8.140;2022-09-28T10:57:26;0.77;;;0.63;;
73575;SDS011;61859;49.204;8.140;2022-09-28T11:00:02;1.67;;;0.97;;
73575;SDS011;61859;49.204;8.140;2022-09-28T11:02:31;0.63;;;0.50;;
73575;SDS011;61859;49.204;8.140;2022-09-28T11:05:01;1.63;;;0.90;;
73575;SDS011;61859;49.204;8.140;2022-09-28T11:07:30;2.00;;;0.60;;
73575;SDS011;61859;49.204;8.140;2022-09-28T11:09:57;0.83;;;0.77;;
73575;SDS011;61859;49.204;8.140;2022-09-28T11:12:25;1.33;;;0.87;;
73575;SDS011;61859;49.204;8.140;2022-09-28T11:15:02;0.57;;;0.40;;
73575;SDS011;61859;49.204;8.140;2022-09-28T11:19:57;1.10;;;0.63;;
73575;SDS011;61859;49.204;8.140;2022-09-28T11:27:58;2.33;;;0.60;;
73575;SDS011;61859;49.204;8.140;2022-09-28T11:33:40;0.60;;;0.60;;
73575;SDS011;61859;49.204;8.140;2022-09-28T11:39:26;0.70;;;0.60;;
73575;SDS011;61859;49.204;8.140;2022-09-28T11:41:43;1.97;;;0.50;;
73575;SDS011;61859;49.204;8.140;2022-09-28T11:52:47;0.80;;;0.70;;
73575;SDS011;61859;49.204;8.140;2022-09-28T11:55:35;0.70;;;0.60;;
73575;SDS011;61859;49.204;8.140;2022-09-28T11:58:10;0.70;;;0.50;;
73575;SDS011;61859;49.204;8.140;2022-09-28T12:00:48;0.93;;;0.83;;
73575;SDS011;61859;49.204;8.140;2022-09-28T12:03:41;2.87;;;1.10;;
73575;SDS011;61859;49.204;8.140;2022-09-28T12:06:11;0.90;;;0.90;;
73575;SDS011;61859;49.204;8.140;2022-09-28T12:08:46;0.80;;;0.77;;
73575;SDS011;61859;49.204;8.140;2022-09-28T12:11:22;1.37;;;1.00;;
73575;SDS011;61859;49.204;8.140;2022-09-28T12:13:53;0.60;;;0.60;;
73575;SDS011;61859;49.204;8.140;2022-09-28T12:16:35;2.60;;;1.07;;
73575;SDS011;61859;49.204;8.140;2022-09-28T12:21:49;1.30;;;0.77;;
73575;SDS011;61859;49.204;8.140;2022-09-28T12:24:35;1.07;;;0.50;;
73575;SDS011;61859;49.204;8.140;2022-09-28T12:29:42;0.70;;;0.37;;
73575;SDS011;61859;49.204;8.140;2022-09-28T12:32:24;0.53;;;0.40;;
73575;SDS011;61859;49.204;8.140;2022-09-28T12:34:56;1.60;;;0.50;;
73575;SDS011;61859;49.204;8.140;2022-09-28T12:43:03;0.97;;;0.60;;
73575;SDS011;61859;49.204;8.140;2022-09-28T12:51:04;0.60;;;0.60;;
73575;SDS011;61859;49.204;8.140;2022-09-28T12:56:12;0.33;;;0.30;;
73575;SDS011;61859;49.204;8.140;2022-09-28T12:59:14;0.77;;;0.40;;
73575;SDS011;61859;49.204;8.140;2022-09-28T13:18:18;1.10;;;0.63;;
73575;SDS011;61859;49.204;8.140;2022-09-28T13:20:58;1.43;;;0.60;;
73575;SDS011;61859;49.204;8.140;2022-09-28T13:23:28;1.23;;;0.67;;
73575;SDS011;61859;49.204;8.140;2022-09-28T13:28:47;0.33;;;0.33;;
73575;SDS011;61859;49.204;8.140;2022-09-28T13:31:18;1.70;;;0.70;;
73575;SDS011;61859;49.204;8.140;2022-09-28T13:33:46;0.70;;;0.50;;
73575;SDS011;61859;49.204;8.140;2022-09-28T13:38:52;2.70;;;0.70;;
73575;SDS011;61859;49.204;8.140;2022-09-28T13:46:50;0.87;;;0.60;;
73575;SDS011;61859;49.204;8.140;2022-09-28T13:49:47;2.30;;;0.57;;
73575;SDS011;61859;49.204;8.140;2022-09-28T13:55:22;2.90;;;0.63;;
73575;SDS011;61859;49.204;8.140;2022-09-28T13:58:16;0.63;;;0.50;;
73575;SDS011;61859;49.204;8.140;2022-09-28T14:01:10;0.63;;;0.47;;
73575;SDS011;61859;49.204;8.140;2022-09-28T14:06:34;1.80;;;0.67;;
73575;SDS011;61859;49.204;8.140;2022-09-28T14:11:39;0.40;;;0.40;;
73575;SDS011;61859;49.204;8.140;2022-09-28T14:16:57;0.50;;;0.40;;
73575;SDS011;61859;49.204;8.140;2022-09-28T14:19:43;0.53;;;0.53;;
73575;SDS011;61859;49.204;8.140;2022-09-28T14:22:22;1.37;;;0.43;;
73575;SDS011;61859;49.204;8.140;2022-09-28T14:36:04;1.30;;;0.70;;
73575;SDS011;61859;49.204;8.140;2022-09-28T14:38:33;0.73;;;0.70;;
73575;SDS011;61859;49.204;8.140;2022-09-28T14:41:30;0.50;;;0.50;;
73575;SDS011;61859;49.204;8.140;2022-09-28T14:44:18;1.40;;;1.10;;
73575;SDS011;61859;49.204;8.140;2022-09-28T14:46:46;1.17;;;0.80;;
73575;SDS011;61859;49.204;8.140;2022-09-28T14:51:42;4.23;;;2.10;;
73575;SDS011;61859;49.204;8.140;2022-09-28T14:54:21;3.87;;;1.87;;
73575;SDS011;61859;49.204;8.140;2022-09-28T14:59:20;0.53;;;0.53;;
73575;SDS011;61859;49.204;8.140;2022-09-28T15:01:58;0.97;;;0.63;;
73575;SDS011;61859;49.204;8.140;2022-09-28T15:04:35;0.77;;;0.60;;
73575;SDS011;61859;49.204;8.140;2022-09-28T15:07:16;1.20;;;1.10;;
73575;SDS011;61859;49.204;8.140;2022-09-28T15:09:54;1.00;;;0.90;;
73575;SDS011;61859;49.204;8.140;2022-09-28T15:12:28;1.37;;;0.80;;
73575;SDS011;61859;49.204;8.140;2022-09-28T15:15:04;1.20;;;0.90;;
73575;SDS011;61859;49.204;8.140;2022-09-28T15:17:36;1.20;;;0.70;;
73575;SDS011;61859;49.204;8.140;2022-09-28T15:22:49;0.90;;;0.70;;
73575;SDS011;61859;49.204;8.140;2022-09-28T15:25:21;1.43;;;0.87;;
73575;SDS011;61859;49.204;8.140;2022-09-28T15:27:52;1.63;;;0.83;;
73575;SDS011;61859;49.204;8.140;2022-09-28T15:30:30;3.23;;;0.77;;
73575;SDS011;61859;49.204;8.140;2022-09-28T15:32:57;0.80;;;0.50;;
73575;SDS011;61859;49.204;8.140;2022-09-28T15:35:52;4.00;;;1.00;;
73575;SDS011;61859;49.204;8.140;2022-09-28T15:38:18;3.70;;;0.50;;
73575;SDS011;61859;49.204;8.140;2022-09-28T15:40:44;0.87;;;0.60;;
73575;SDS011;61859;49.204;8.140;2022-09-28T15:43:22;0.70;;;0.70;;
73575;SDS011;61859;49.204;8.140;2022-09-28T15:45:55;0.60;;;0.60;;
73575;SDS011;61859;49.204;8.140;2022-09-28T15:49:10;1.73;;;0.90;;
73575;SDS011;61859;49.204;8.140;2022-09-28T15:51:18;1.63;;;0.80;;
73575;SDS011;61859;49.204;8.140;2022-09-28T15:56:25;2.30;;;0.90;;
73575;SDS011;61859;49.204;8.140;2022-09-28T15:59:06;1.37;;;0.60;;
73575;SDS011;61859;49.204;8.140;2022-09-28T16:01:47;0.63;;;0.50;;
73575;SDS011;61859;49.204;8.140;2022-09-28T16:12:20;1.00;;;0.77;;
73575;SDS011;61859;49.204;8.140;2022-09-28T16:14:47;1.23;;;0.90;;
73575;SDS011;61859;49.204;8.140;2022-09-28T16:17:25;2.27;;;0.73;;
73575;SDS011;61859;49.204;8.140;2022-09-28T16:19:57;1.27;;;0.60;;
73575;SDS011;61859;49.204;8.140;2022-09-28T16:22:27;0.60;;;0.60;;
73575;SDS011;61859;49.204;8.140;2022-09-28T16:24:57;0.70;;;0.70;;
73575;SDS011;61859;49.204;8.140;2022-09-28T16:27:26;2.23;;;0.97;;
73575;SDS011;61859;49.204;8.140;2022-09-28T16:30:45;1.30;;;1.00;;
73575;SDS011;61859;49.204;8.140;2022-09-28T16:32:57;0.77;;;0.67;;
73575;SDS011;61859;49.204;8.140;2022-09-28T16:35:50;0.77;;;0.77;;
73575;SDS011;61859;49.204;8.140;2022-09-28T16:38:16;1.13;;;1.00;;
73575;SDS011;61859;49.204;8.140;2022-09-28T16:40:43;2.37;;;1.10;;
73575;SDS011;61859;49.204;8.140;2022-09-28T16:43:19;0.53;;;0.53;;
73575;SDS011;61859;49.204;8.140;2022-09-28T16:45:44;1.37;;;0.63;;
73575;SDS011;61859;49.204;8.140;2022-09-28T16:48:13;0.77;;;0.77;;
73575;SDS011;61859;49.204;8.140;2022-09-28T16:50:43;1.27;;;0.87;;
73575;SDS011;61859;49.204;8.140;2022-09-28T16:53:12;1.53;;;0.60;;
73575;SDS011;61859;49.204;8.140;2022-09-28T16:55:58;1.20;;;0.83;;
73575;SDS011;61859;49.204;8.140;2022-09-28T16:58:24;2.87;;;0.80;;
73575;SDS011;61859;49.204;8.140;2022-09-28T17:00:51;1.20;;;0.90;;
73575;SDS011;61859;49.204;8.140;2022-09-28T17:03:18;0.70;;;0.70;;
73575;SDS011;61859;49.204;8.140;2022-09-28T17:05:47;2.07;;;0.90;;
73575;SDS011;61859;49.204;8.140;2022-09-28T17:08:14;1.20;;;0.80;;
73575;SDS011;61859;49.204;8.140;2022-09-28T17:10:49;2.07;;;1.20;;
73575;SDS011;61859;49.204;8.140;2022-09-28T17:13:19;1.27;;;1.17;;
73575;SDS011;61859;49.204;8.140;2022-09-28T17:15:55;3.03;;;0.93;;
73575;SDS011;61859;49.204;8.140;2022-09-28T17:18:21;1.33;;;1.10;;
73575;SDS011;61859;49.204;8.140;2022-09-28T17:20:47;1.40;;;1.30;;
73575;SDS011;61859;49.204;8.140;2022-09-28T17:23:15;4.37;;;1.73;;
73575;SDS011;61859;49.204;8.140;2022-09-28T17:25:42;1.90;;;1.20;;
73575;SDS011;61859;49.204;8.140;2022-09-28T17:28:41;4.47;;;2.30;;
73575;SDS011;61859;49.204;8.140;2022-09-28T17:31:00;2.70;;;1.50;;
73575;SDS011;61859;49.204;8.140;2022-09-28T17:33:27;1.70;;;1.37;;
73575;SDS011;61859;49.204;8.140;2022-09-28T17:35:56;1.80;;;1.23;;
73575;SDS011;61859;49.204;8.140;2022-09-28T17:38:24;2.07;;;1.40;;
73575;SDS011;61859;49.204;8.140;2022-09-28T17:40:50;1.13;;;1.03;;
73575;SDS011;61859;49.204;8.140;2022-09-28T17:43:15;2.37;;;1.60;;
73575;SDS011;61859;49.204;8.140;2022-09-28T17:45:41;2.33;;;1.80;;
73575;SDS011;61859;49.204;8.140;2022-09-28T17:48:14;3.23;;;1.70;;
73575;SDS011;61859;49.204;8.140;2022-09-28T17:50:42;1.70;;;1.60;;
73575;SDS011;61859;49.204;8.140;2022-09-28T17:53:09;4.70;;;1.47;;
73575;SDS011;61859;49.204;8.140;2022-09-28T17:55:35;3.00;;;1.83;;
73575;SDS011;61859;49.204;8.140;2022-09-28T17:58:15;2.60;;;2.30;;